Pagrindinis puslapis
METAR-TAF:

METAR-TAF

Oro uostai :

Holzdorf, Vokietija

platuma: 51-46N, ilguma: 013-11E, Aukštis: 79 m

Dabartinis oras

Ataskaita buvo paskelbta 40 minutes, ne 20:20 UTC
Vėjas 1 kt nuo kintamojo kryptimis
Temperatūra 6°C
Drėgmė 93%
Slėgis 1027 hPa
Matomumas 10 km arba daugiau
Mažai debesys ne aukštis 35000 ft

METAR: ETSH 202020Z VRB01KT 9999 FEW350 06/05 Q1027 BLU+

Laikas: 23:00 (21:00 UTC)

Prognozė

Ataskaita buvo paskelbta 12 valandos ir 52 minutes, ne 08:08 UTC
Prognozė galioja nuo 20 metu 07 UTC su 20 metu 17 UTC
Vėjas 5 kt iš Vakarų
Matomumas 10 km arba daugiau
Mažai debesys ne aukštis 15000 ft
Išsisklaidę debesys ne aukštis 35000 ft
Tapsmas
nuo 20 metu 09 UTC su 20 metu 11 UTC
Vėjas 8 kt iš Vakarų
Matomumas 10 km arba daugiau
Išsisklaidę debesys ne aukštis 3000 ft
Su prošvaistėmis ne aukštis 5000 ft

TAF: ETSH 200808Z 2007/2017 26005KT 9999 NSW FEW150 SCT350 BECMG 2009/2011 27008KT 9999 NSW SCT030 BKN050

Orai ataskaitas ir orų prognozės (METAR, TAF).

turimą stotys yra geltonos ir raudonos taškus žemėlapyje.

Perkelti pele per norėdami pamatyti stoties vardą.

Tada spustelėkite, norėdami matyti oro stebėjimo ir prognozės.

Norėdami pakeisti žemėlapį: spustelėkite ant žalios mygtukų su juodo kryžiaus žemyn,; žalią mygtuką su brūkšneliu, jei norite nutolinti; arba žalių rodyklių gretimoms žemėlapius.


METAR-TAF: